EPSC

Details ICAO EPSC (SZZ)
Name GOLENIOW
Region Poland
Timezone Europe/Warsaw (UTC+2.0)
Plans Departing 194
Arriving 129
Stats Elevation 154 ft / 47 m (AMSL)
Location 53.584731° 14.902195°
Runways 1
Magnetic Variation 4.357° E
Sunrise 2018-05-21 02:52:03 UTC / 2018-05-21 04:52:03 Local
Sunset 2018-05-21 19:04:45 UTC / 2018-05-21 21:04:45 Local
Advertisement - Login to hide

Runways

ID Width Length Bearing (true) Bearing (mag) Surface Threshold Offset Overrun Length
13 197 ft / 60 m 8,187 ft / 2,495 m 130.94° 126.58° Concrete 0 ft / 0 m 0 ft / 0 m
31 197 ft / 60 m 8,187 ft / 2,495 m 310.96° 306.60° Concrete 0 ft / 0 m 0 ft / 0 m

Approach Navaids

Runway Type Ident Frequency Range Bearing (true) Bearing (mag) Slope Elevation
31 Localiser SZC 110.50 MHz 18 nm / 33 km 310.93° 306.58° - 154 ft / 47 m (AMSL)
31 Glidescope SZC 110.50 MHz 10 nm / 19 km 310.95° 306.59° 3.00° 154 ft / 47 m (AMSL)
31 DME SZC 110.50 MHz 18 nm / 33 km - - - 197 ft / 60 m (AMSL)

Map

Weather


0- 5 10 15 20 25 30 35+ Temperature / ° C

Clouds and Precipitation
Forecast for 2018-05-21 18:00 UTC. Updated 2 hours ago

Ground ~20,000 ft ~40,000 ft Winds

METAR

EPSC 211930Z 04004KT CAVOK 16/07 Q1019

TAF

TAF EPSC 211730Z 2118/2218 09010KT CAVOK BECMG 2212/2215 03008KT

Frequencies

Tower 118.50 MHz SZCZECIN TWR
Warning: Do not use this data for real-world aviation or navigation. No guarantee of current accuracy is given.